sensor_id;sensor_type;location;lat;lon;timestamp;P1;durP1;ratioP1;P2;durP2;ratioP2
59950;SDS011;45812;53.540;9.774;2022-11-11T00:02:13;14.65;;;3.13;;
59950;SDS011;45812;53.540;9.774;2022-11-11T00:04:38;12.13;;;3.50;;
59950;SDS011;45812;53.540;9.774;2022-11-11T00:07:04;11.07;;;3.30;;
59950;SDS011;45812;53.540;9.774;2022-11-11T00:09:29;11.70;;;3.47;;
59950;SDS011;45812;53.540;9.774;2022-11-11T00:11:54;6.50;;;3.55;;
59950;SDS011;45812;53.540;9.774;2022-11-11T00:14:19;9.40;;;3.70;;
59950;SDS011;45812;53.540;9.774;2022-11-11T00:16:45;8.82;;;3.47;;
59950;SDS011;45812;53.540;9.774;2022-11-11T00:22:19;8.32;;;3.60;;
59950;SDS011;45812;53.540;9.774;2022-11-11T00:25:04;5.88;;;3.72;;
59950;SDS011;45812;53.540;9.774;2022-11-11T00:27:32;14.63;;;4.68;;
59950;SDS011;45812;53.540;9.774;2022-11-11T00:29:58;8.80;;;4.28;;
59950;SDS011;45812;53.540;9.774;2022-11-11T00:32:23;14.02;;;4.35;;
59950;SDS011;45812;53.540;9.774;2022-11-11T00:34:53;9.48;;;3.75;;
59950;SDS011;45812;53.540;9.774;2022-11-11T00:37:38;9.88;;;3.90;;
59950;SDS011;45812;53.540;9.774;2022-11-11T00:40:05;6.57;;;4.07;;
59950;SDS011;45812;53.540;9.774;2022-11-11T00:42:31;10.45;;;4.03;;
59950;SDS011;45812;53.540;9.774;2022-11-11T00:44:57;12.45;;;4.00;;
59950;SDS011;45812;53.540;9.774;2022-11-11T00:47:22;11.52;;;4.72;;
59950;SDS011;45812;53.540;9.774;2022-11-11T00:50:09;8.38;;;3.80;;
59950;SDS011;45812;53.540;9.774;2022-11-11T00:52:55;8.90;;;4.38;;
59950;SDS011;45812;53.540;9.774;2022-11-11T00:55:20;11.77;;;4.68;;
59950;SDS011;45812;53.540;9.774;2022-11-11T00:57:45;15.85;;;4.40;;
59950;SDS011;45812;53.540;9.774;2022-11-11T01:00:11;12.82;;;4.40;;
59950;SDS011;45812;53.540;9.774;2022-11-11T01:02:37;12.90;;;4.22;;
59950;SDS011;45812;53.540;9.774;2022-11-11T01:05:02;14.02;;;4.60;;
59950;SDS011;45812;53.540;9.774;2022-11-11T01:07:27;9.43;;;4.63;;
59950;SDS011;45812;53.540;9.774;2022-11-11T01:09:53;11.55;;;4.40;;
59950;SDS011;45812;53.540;9.774;2022-11-11T01:12:18;10.13;;;4.40;;
59950;SDS011;45812;53.540;9.774;2022-11-11T01:14:43;11.07;;;4.35;;
59950;SDS011;45812;53.540;9.774;2022-11-11T01:17:08;11.68;;;4.80;;
59950;SDS011;45812;53.540;9.774;2022-11-11T01:19:34;12.48;;;4.50;;
59950;SDS011;45812;53.540;9.774;2022-11-11T01:21:59;11.07;;;4.45;;
59950;SDS011;45812;53.540;9.774;2022-11-11T01:24:25;16.27;;;4.15;;
59950;SDS011;45812;53.540;9.774;2022-11-11T01:26:50;12.38;;;4.20;;
59950;SDS011;45812;53.540;9.774;2022-11-11T01:29:15;9.30;;;4.40;;
59950;SDS011;45812;53.540;9.774;2022-11-11T01:31:40;9.68;;;4.97;;
59950;SDS011;45812;53.540;9.774;2022-11-11T01:34:06;12.52;;;4.30;;
59950;SDS011;45812;53.540;9.774;2022-11-11T01:36:31;9.55;;;4.22;;
59950;SDS011;45812;53.540;9.774;2022-11-11T01:38:57;15.32;;;5.03;;
59950;SDS011;45812;53.540;9.774;2022-11-11T01:41:24;10.63;;;4.38;;
59950;SDS011;45812;53.540;9.774;2022-11-11T01:43:59;10.55;;;4.78;;
59950;SDS011;45812;53.540;9.774;2022-11-11T01:49:27;11.23;;;4.20;;
59950;SDS011;45812;53.540;9.774;2022-11-11T01:52:13;9.43;;;4.35;;
59950;SDS011;45812;53.540;9.774;2022-11-11T01:57:18;10.45;;;4.65;;
59950;SDS011;45812;53.540;9.774;2022-11-11T02:00:05;12.02;;;4.45;;
59950;SDS011;45812;53.540;9.774;2022-11-11T02:02:34;13.80;;;4.43;;
59950;SDS011;45812;53.540;9.774;2022-11-11T02:05:04;12.55;;;4.75;;
59950;SDS011;45812;53.540;9.774;2022-11-11T02:07:51;11.57;;;5.35;;
59950;SDS011;45812;53.540;9.774;2022-11-11T02:10:19;12.00;;;4.80;;
59950;SDS011;45812;53.540;9.774;2022-11-11T02:12:47;11.90;;;4.25;;
59950;SDS011;45812;53.540;9.774;2022-11-11T02:15:31;12.07;;;3.83;;
59950;SDS011;45812;53.540;9.774;2022-11-11T02:17:56;19.75;;;5.13;;
59950;SDS011;45812;53.540;9.774;2022-11-11T02:20:22;8.45;;;3.85;;
59950;SDS011;45812;53.540;9.774;2022-11-11T02:22:51;12.05;;;4.20;;
59950;SDS011;45812;53.540;9.774;2022-11-11T02:25:22;8.07;;;4.07;;
59950;SDS011;45812;53.540;9.774;2022-11-11T02:27:50;13.93;;;3.72;;
59950;SDS011;45812;53.540;9.774;2022-11-11T02:30:18;13.82;;;3.90;;
59950;SDS011;45812;53.540;9.774;2022-11-11T02:32:46;6.30;;;3.60;;
59950;SDS011;45812;53.540;9.774;2022-11-11T02:35:14;10.63;;;4.05;;
59950;SDS011;45812;53.540;9.774;2022-11-11T02:37:45;5.32;;;3.30;;
59950;SDS011;45812;53.540;9.774;2022-11-11T02:40:13;11.23;;;4.15;;
59950;SDS011;45812;53.540;9.774;2022-11-11T02:42:42;10.50;;;4.25;;
59950;SDS011;45812;53.540;9.774;2022-11-11T02:45:07;7.75;;;3.85;;
59950;SDS011;45812;53.540;9.774;2022-11-11T02:47:33;7.93;;;3.45;;
59950;SDS011;45812;53.540;9.774;2022-11-11T02:49:58;12.55;;;4.55;;
59950;SDS011;45812;53.540;9.774;2022-11-11T02:52:23;9.23;;;4.07;;
59950;SDS011;45812;53.540;9.774;2022-11-11T02:54:48;13.05;;;4.40;;
59950;SDS011;45812;53.540;9.774;2022-11-11T02:57:14;13.32;;;4.53;;
59950;SDS011;45812;53.540;9.774;2022-11-11T02:59:40;8.80;;;3.65;;
59950;SDS011;45812;53.540;9.774;2022-11-11T03:02:06;14.32;;;4.10;;
59950;SDS011;45812;53.540;9.774;2022-11-11T03:04:32;9.95;;;4.25;;
59950;SDS011;45812;53.540;9.774;2022-11-11T03:06:58;15.32;;;4.30;;
59950;SDS011;45812;53.540;9.774;2022-11-11T03:09:23;7.63;;;3.72;;
59950;SDS011;45812;53.540;9.774;2022-11-11T03:11:49;6.03;;;3.47;;
59950;SDS011;45812;53.540;9.774;2022-11-11T03:14:14;8.32;;;3.75;;
59950;SDS011;45812;53.540;9.774;2022-11-11T03:16:39;13.15;;;4.43;;
59950;SDS011;45812;53.540;9.774;2022-11-11T03:19:23;6.40;;;3.65;;
59950;SDS011;45812;53.540;9.774;2022-11-11T03:21:48;7.28;;;3.75;;
59950;SDS011;45812;53.540;9.774;2022-11-11T03:24:13;7.60;;;4.03;;
59950;SDS011;45812;53.540;9.774;2022-11-11T03:26:39;11.30;;;3.85;;
59950;SDS011;45812;53.540;9.774;2022-11-11T03:29:04;8.02;;;3.45;;
59950;SDS011;45812;53.540;9.774;2022-11-11T03:31:29;11.65;;;3.80;;
59950;SDS011;45812;53.540;9.774;2022-11-11T03:33:55;8.98;;;3.65;;
59950;SDS011;45812;53.540;9.774;2022-11-11T03:36:20;15.27;;;4.40;;
59950;SDS011;45812;53.540;9.774;2022-11-11T03:39:05;9.38;;;3.90;;
59950;SDS011;45812;53.540;9.774;2022-11-11T03:41:30;10.52;;;3.90;;
59950;SDS011;45812;53.540;9.774;2022-11-11T03:43:56;9.85;;;4.63;;
59950;SDS011;45812;53.540;9.774;2022-11-11T03:46:21;7.85;;;4.45;;
59950;SDS011;45812;53.540;9.774;2022-11-11T03:48:46;16.88;;;4.32;;
59950;SDS011;45812;53.540;9.774;2022-11-11T03:51:11;13.93;;;4.40;;
59950;SDS011;45812;53.540;9.774;2022-11-11T03:53:37;10.65;;;3.83;;
59950;SDS011;45812;53.540;9.774;2022-11-11T03:56:02;8.15;;;3.72;;
59950;SDS011;45812;53.540;9.774;2022-11-11T03:58:27;15.82;;;4.15;;
59950;SDS011;45812;53.540;9.774;2022-11-11T04:00:53;9.82;;;4.00;;
59950;SDS011;45812;53.540;9.774;2022-11-11T04:03:19;10.80;;;4.05;;
59950;SDS011;45812;53.540;9.774;2022-11-11T04:06:03;11.40;;;4.15;;
59950;SDS011;45812;53.540;9.774;2022-11-11T04:08:48;10.77;;;4.15;;
59950;SDS011;45812;53.540;9.774;2022-11-11T04:11:34;11.82;;;4.07;;
59950;SDS011;45812;53.540;9.774;2022-11-11T04:14:02;8.77;;;4.68;;
59950;SDS011;45812;53.540;9.774;2022-11-11T04:16:48;9.38;;;4.40;;
59950;SDS011;45812;53.540;9.774;2022-11-11T04:19:13;13.60;;;4.10;;
59950;SDS011;45812;53.540;9.774;2022-11-11T04:21:57;8.98;;;4.30;;
59950;SDS011;45812;53.540;9.774;2022-11-11T04:24:23;12.60;;;4.80;;
59950;SDS011;45812;53.540;9.774;2022-11-11T04:27:07;7.85;;;4.10;;
59950;SDS011;45812;53.540;9.774;2022-11-11T04:29:34;10.70;;;4.13;;
59950;SDS011;45812;53.540;9.774;2022-11-11T04:34:49;7.55;;;4.03;;
59950;SDS011;45812;53.540;9.774;2022-11-11T04:37:16;12.77;;;4.78;;
59950;SDS011;45812;53.540;9.774;2022-11-11T04:39:42;13.38;;;5.15;;
59950;SDS011;45812;53.540;9.774;2022-11-11T04:42:26;17.10;;;4.47;;
59950;SDS011;45812;53.540;9.774;2022-11-11T04:44:52;11.73;;;4.63;;
59950;SDS011;45812;53.540;9.774;2022-11-11T04:50:02;10.07;;;3.95;;
59950;SDS011;45812;53.540;9.774;2022-11-11T04:52:28;8.00;;;4.22;;
59950;SDS011;45812;53.540;9.774;2022-11-11T04:54:54;12.82;;;4.85;;
59950;SDS011;45812;53.540;9.774;2022-11-11T04:57:43;12.25;;;4.25;;
59950;SDS011;45812;53.540;9.774;2022-11-11T05:00:10;8.63;;;4.28;;
59950;SDS011;45812;53.540;9.774;2022-11-11T05:02:38;8.48;;;3.85;;
59950;SDS011;45812;53.540;9.774;2022-11-11T05:07:47;9.05;;;4.50;;
59950;SDS011;45812;53.540;9.774;2022-11-11T05:12:56;9.70;;;4.03;;
59950;SDS011;45812;53.540;9.774;2022-11-11T05:15:41;10.70;;;4.38;;
59950;SDS011;45812;53.540;9.774;2022-11-11T05:18:25;12.95;;;5.00;;
59950;SDS011;45812;53.540;9.774;2022-11-11T05:21:20;10.85;;;4.50;;
59950;SDS011;45812;53.540;9.774;2022-11-11T05:23:49;14.63;;;4.80;;
59950;SDS011;45812;53.540;9.774;2022-11-11T05:26:33;12.20;;;5.03;;
59950;SDS011;45812;53.540;9.774;2022-11-11T05:28:58;15.27;;;5.07;;
59950;SDS011;45812;53.540;9.774;2022-11-11T05:31:23;14.98;;;6.05;;
59950;SDS011;45812;53.540;9.774;2022-11-11T05:33:49;12.55;;;4.82;;
59950;SDS011;45812;53.540;9.774;2022-11-11T05:36:14;12.38;;;5.32;;
59950;SDS011;45812;53.540;9.774;2022-11-11T05:38:39;10.32;;;4.30;;
59950;SDS011;45812;53.540;9.774;2022-11-11T05:41:05;10.05;;;4.70;;
59950;SDS011;45812;53.540;9.774;2022-11-11T05:43:31;9.85;;;5.32;;
59950;SDS011;45812;53.540;9.774;2022-11-11T05:45:56;11.95;;;5.38;;
59950;SDS011;45812;53.540;9.774;2022-11-11T05:48:21;13.57;;;5.45;;
59950;SDS011;45812;53.540;9.774;2022-11-11T05:50:47;13.55;;;5.70;;
59950;SDS011;45812;53.540;9.774;2022-11-11T05:53:12;9.80;;;5.15;;
59950;SDS011;45812;53.540;9.774;2022-11-11T05:55:37;12.60;;;4.95;;
59950;SDS011;45812;53.540;9.774;2022-11-11T05:58:02;12.18;;;5.78;;
59950;SDS011;45812;53.540;9.774;2022-11-11T06:00:28;15.52;;;5.20;;
59950;SDS011;45812;53.540;9.774;2022-11-11T06:02:53;14.32;;;5.72;;
59950;SDS011;45812;53.540;9.774;2022-11-11T06:05:19;14.43;;;6.10;;
59950;SDS011;45812;53.540;9.774;2022-11-11T06:07:44;13.80;;;6.00;;
59950;SDS011;45812;53.540;9.774;2022-11-11T06:10:09;10.23;;;5.03;;
59950;SDS011;45812;53.540;9.774;2022-11-11T06:12:53;15.60;;;6.47;;
59950;SDS011;45812;53.540;9.774;2022-11-11T06:15:34;11.48;;;5.82;;
59950;SDS011;45812;53.540;9.774;2022-11-11T06:18:01;11.75;;;5.75;;
59950;SDS011;45812;53.540;9.774;2022-11-11T06:20:27;16.35;;;5.95;;
59950;SDS011;45812;53.540;9.774;2022-11-11T06:22:53;14.35;;;5.70;;
59950;SDS011;45812;53.540;9.774;2022-11-11T06:25:31;13.85;;;5.68;;
59950;SDS011;45812;53.540;9.774;2022-11-11T06:28:16;17.35;;;5.78;;
59950;SDS011;45812;53.540;9.774;2022-11-11T06:30:43;13.70;;;5.80;;
59950;SDS011;45812;53.540;9.774;2022-11-11T06:33:09;22.13;;;6.82;;
59950;SDS011;45812;53.540;9.774;2022-11-11T06:35:35;14.48;;;7.13;;
59950;SDS011;45812;53.540;9.774;2022-11-11T06:38:03;19.08;;;6.90;;
59950;SDS011;45812;53.540;9.774;2022-11-11T06:40:29;15.80;;;6.80;;
59950;SDS011;45812;53.540;9.774;2022-11-11T06:42:55;11.13;;;6.90;;
59950;SDS011;45812;53.540;9.774;2022-11-11T06:45:22;13.45;;;6.72;;
59950;SDS011;45812;53.540;9.774;2022-11-11T06:47:48;22.52;;;7.13;;
59950;SDS011;45812;53.540;9.774;2022-11-11T06:50:13;15.50;;;6.97;;
59950;SDS011;45812;53.540;9.774;2022-11-11T06:52:39;20.52;;;7.70;;
59950;SDS011;45812;53.540;9.774;2022-11-11T06:55:04;18.73;;;7.88;;
59950;SDS011;45812;53.540;9.774;2022-11-11T06:57:30;23.13;;;7.72;;
59950;SDS011;45812;53.540;9.774;2022-11-11T06:59:55;22.15;;;7.40;;
59950;SDS011;45812;53.540;9.774;2022-11-11T07:02:20;22.08;;;8.27;;
59950;SDS011;45812;53.540;9.774;2022-11-11T07:04:45;17.58;;;7.18;;
59950;SDS011;45812;53.540;9.774;2022-11-11T07:07:11;18.65;;;7.82;;
59950;SDS011;45812;53.540;9.774;2022-11-11T07:09:36;15.57;;;7.47;;
59950;SDS011;45812;53.540;9.774;2022-11-11T07:12:01;19.92;;;7.75;;
59950;SDS011;45812;53.540;9.774;2022-11-11T07:14:27;17.88;;;7.88;;
59950;SDS011;45812;53.540;9.774;2022-11-11T07:16:52;19.88;;;8.23;;
59950;SDS011;45812;53.540;9.774;2022-11-11T07:19:17;18.38;;;7.80;;
59950;SDS011;45812;53.540;9.774;2022-11-11T07:21:42;21.08;;;8.38;;
59950;SDS011;45812;53.540;9.774;2022-11-11T07:24:08;19.00;;;8.85;;
59950;SDS011;45812;53.540;9.774;2022-11-11T07:26:33;16.55;;;7.63;;
59950;SDS011;45812;53.540;9.774;2022-11-11T07:28:58;20.55;;;7.72;;
59950;SDS011;45812;53.540;9.774;2022-11-11T07:31:23;22.33;;;7.75;;
59950;SDS011;45812;53.540;9.774;2022-11-11T07:33:49;22.05;;;8.93;;
59950;SDS011;45812;53.540;9.774;2022-11-11T07:36:14;25.33;;;8.70;;
59950;SDS011;45812;53.540;9.774;2022-11-11T07:38:39;20.02;;;8.68;;
59950;SDS011;45812;53.540;9.774;2022-11-11T07:41:04;22.20;;;8.57;;
59950;SDS011;45812;53.540;9.774;2022-11-11T07:43:30;21.92;;;9.90;;
59950;SDS011;45812;53.540;9.774;2022-11-11T07:45:55;18.63;;;8.60;;
59950;SDS011;45812;53.540;9.774;2022-11-11T07:48:20;20.48;;;8.82;;
59950;SDS011;45812;53.540;9.774;2022-11-11T07:50:45;23.35;;;8.43;;
59950;SDS011;45812;53.540;9.774;2022-11-11T07:53:11;22.17;;;9.55;;
59950;SDS011;45812;53.540;9.774;2022-11-11T07:55:36;20.95;;;8.93;;
59950;SDS011;45812;53.540;9.774;2022-11-11T07:58:01;25.55;;;8.73;;
59950;SDS011;45812;53.540;9.774;2022-11-11T08:00:27;16.98;;;8.45;;
59950;SDS011;45812;53.540;9.774;2022-11-11T08:02:52;27.30;;;8.68;;
59950;SDS011;45812;53.540;9.774;2022-11-11T08:05:17;21.60;;;9.60;;
59950;SDS011;45812;53.540;9.774;2022-11-11T08:07:43;19.88;;;8.68;;
59950;SDS011;45812;53.540;9.774;2022-11-11T08:10:09;23.80;;;10.00;;
59950;SDS011;45812;53.540;9.774;2022-11-11T08:12:35;26.02;;;8.98;;
59950;SDS011;45812;53.540;9.774;2022-11-11T08:15:19;20.40;;;8.68;;
59950;SDS011;45812;53.540;9.774;2022-11-11T08:17:44;24.65;;;9.30;;
59950;SDS011;45812;53.540;9.774;2022-11-11T08:20:10;20.88;;;9.48;;
59950;SDS011;45812;53.540;9.774;2022-11-11T08:22:39;20.13;;;8.48;;
59950;SDS011;45812;53.540;9.774;2022-11-11T08:25:07;21.90;;;8.25;;
59950;SDS011;45812;53.540;9.774;2022-11-11T08:27:38;21.83;;;8.88;;
59950;SDS011;45812;53.540;9.774;2022-11-11T08:30:04;24.80;;;9.43;;
59950;SDS011;45812;53.540;9.774;2022-11-11T08:32:31;23.20;;;8.85;;
59950;SDS011;45812;53.540;9.774;2022-11-11T08:34:56;21.35;;;8.63;;
59950;SDS011;45812;53.540;9.774;2022-11-11T08:37:21;21.65;;;9.07;;
59950;SDS011;45812;53.540;9.774;2022-11-11T08:39:46;20.67;;;9.20;;
59950;SDS011;45812;53.540;9.774;2022-11-11T08:42:11;21.90;;;9.02;;
59950;SDS011;45812;53.540;9.774;2022-11-11T08:44:37;21.83;;;9.82;;
59950;SDS011;45812;53.540;9.774;2022-11-11T08:47:02;25.40;;;9.63;;
59950;SDS011;45812;53.540;9.774;2022-11-11T08:49:27;24.33;;;9.85;;
59950;SDS011;45812;53.540;9.774;2022-11-11T08:51:53;25.60;;;10.00;;
59950;SDS011;45812;53.540;9.774;2022-11-11T08:54:18;24.23;;;9.07;;
59950;SDS011;45812;53.540;9.774;2022-11-11T08:56:43;26.27;;;11.32;;
59950;SDS011;45812;53.540;9.774;2022-11-11T08:59:09;23.65;;;9.93;;
59950;SDS011;45812;53.540;9.774;2022-11-11T09:01:34;22.90;;;10.30;;
59950;SDS011;45812;53.540;9.774;2022-11-11T09:04:00;20.33;;;9.85;;
59950;SDS011;45812;53.540;9.774;2022-11-11T09:06:26;25.00;;;9.55;;
59950;SDS011;45812;53.540;9.774;2022-11-11T09:08:52;23.17;;;10.75;;
59950;SDS011;45812;53.540;9.774;2022-11-11T09:11:17;26.65;;;10.95;;
59950;SDS011;45812;53.540;9.774;2022-11-11T09:13:42;20.98;;;10.40;;
59950;SDS011;45812;53.540;9.774;2022-11-11T09:16:07;24.30;;;10.57;;
59950;SDS011;45812;53.540;9.774;2022-11-11T09:18:33;27.48;;;10.30;;
59950;SDS011;45812;53.540;9.774;2022-11-11T09:20:59;20.45;;;10.38;;
59950;SDS011;45812;53.540;9.774;2022-11-11T09:23:24;24.88;;;9.73;;
59950;SDS011;45812;53.540;9.774;2022-11-11T09:25:49;22.85;;;10.05;;
59950;SDS011;45812;53.540;9.774;2022-11-11T09:28:15;23.30;;;10.23;;
59950;SDS011;45812;53.540;9.774;2022-11-11T09:30:40;23.30;;;9.68;;
59950;SDS011;45812;53.540;9.774;2022-11-11T09:33:05;24.65;;;10.90;;
59950;SDS011;45812;53.540;9.774;2022-11-11T09:35:31;22.50;;;9.45;;
59950;SDS011;45812;53.540;9.774;2022-11-11T09:37:59;20.15;;;9.82;;
59950;SDS011;45812;53.540;9.774;2022-11-11T09:40:26;23.95;;;9.40;;
59950;SDS011;45812;53.540;9.774;2022-11-11T09:43:04;20.98;;;9.77;;
59950;SDS011;45812;53.540;9.774;2022-11-11T09:45:53;21.27;;;9.93;;
59950;SDS011;45812;53.540;9.774;2022-11-11T09:48:34;25.98;;;9.60;;
59950;SDS011;45812;53.540;9.774;2022-11-11T09:51:23;18.42;;;9.43;;
59950;SDS011;45812;53.540;9.774;2022-11-11T09:53:57;21.65;;;10.40;;
59950;SDS011;45812;53.540;9.774;2022-11-11T09:58:58;20.33;;;10.15;;
59950;SDS011;45812;53.540;9.774;2022-11-11T10:01:31;20.88;;;9.57;;
59950;SDS011;45812;53.540;9.774;2022-11-11T10:04:04;19.98;;;9.38;;
59950;SDS011;45812;53.540;9.774;2022-11-11T10:06:49;26.80;;;10.40;;
59950;SDS011;45812;53.540;9.774;2022-11-11T10:12:22;25.08;;;11.52;;
59950;SDS011;45812;53.540;9.774;2022-11-11T10:14:57;30.15;;;10.35;;
59950;SDS011;45812;53.540;9.774;2022-11-11T10:17:30;22.75;;;10.63;;
59950;SDS011;45812;53.540;9.774;2022-11-11T10:20:17;19.90;;;9.80;;
59950;SDS011;45812;53.540;9.774;2022-11-11T10:22:48;20.90;;;9.80;;
59950;SDS011;45812;53.540;9.774;2022-11-11T10:25:18;25.17;;;10.27;;
59950;SDS011;45812;53.540;9.774;2022-11-11T10:27:51;26.85;;;11.30;;
59950;SDS011;45812;53.540;9.774;2022-11-11T10:32:53;22.83;;;9.68;;
59950;SDS011;45812;53.540;9.774;2022-11-11T10:35:24;26.10;;;10.35;;
59950;SDS011;45812;53.540;9.774;2022-11-11T10:37:55;21.02;;;9.73;;
59950;SDS011;45812;53.540;9.774;2022-11-11T10:40:34;22.08;;;10.07;;
59950;SDS011;45812;53.540;9.774;2022-11-11T10:43:10;19.25;;;8.95;;
59950;SDS011;45812;53.540;9.774;2022-11-11T10:45:49;23.58;;;9.55;;
59950;SDS011;45812;53.540;9.774;2022-11-11T10:48:29;21.27;;;9.73;;
59950;SDS011;45812;53.540;9.774;2022-11-11T10:51:03;22.15;;;9.25;;
59950;SDS011;45812;53.540;9.774;2022-11-11T10:53:32;25.92;;;10.65;;
59950;SDS011;45812;53.540;9.774;2022-11-11T10:56:18;21.00;;;10.30;;
59950;SDS011;45812;53.540;9.774;2022-11-11T11:01:31;21.45;;;9.52;;
59950;SDS011;45812;53.540;9.774;2022-11-11T11:04:09;22.00;;;10.02;;
59950;SDS011;45812;53.540;9.774;2022-11-11T11:06:41;27.38;;;10.45;;
59950;SDS011;45812;53.540;9.774;2022-11-11T11:09:13;23.20;;;10.30;;
59950;SDS011;45812;53.540;9.774;2022-11-11T11:11:53;21.73;;;10.40;;
59950;SDS011;45812;53.540;9.774;2022-11-11T11:14:25;22.30;;;10.20;;
59950;SDS011;45812;53.540;9.774;2022-11-11T11:16:59;23.58;;;9.85;;
59950;SDS011;45812;53.540;9.774;2022-11-11T11:19:32;20.90;;;9.77;;
59950;SDS011;45812;53.540;9.774;2022-11-11T11:21:58;21.42;;;9.23;;
59950;SDS011;45812;53.540;9.774;2022-11-11T11:24:25;21.33;;;8.98;;
59950;SDS011;45812;53.540;9.774;2022-11-11T11:26:56;22.40;;;9.88;;
59950;SDS011;45812;53.540;9.774;2022-11-11T11:29:44;22.63;;;9.75;;
59950;SDS011;45812;53.540;9.774;2022-11-11T11:32:26;25.77;;;10.35;;
59950;SDS011;45812;53.540;9.774;2022-11-11T11:34:54;20.33;;;9.68;;
59950;SDS011;45812;53.540;9.774;2022-11-11T11:37:21;24.05;;;9.75;;
59950;SDS011;45812;53.540;9.774;2022-11-11T11:40:00;22.10;;;9.73;;
59950;SDS011;45812;53.540;9.774;2022-11-11T11:42:29;26.00;;;11.00;;
59950;SDS011;45812;53.540;9.774;2022-11-11T11:44:55;24.17;;;10.52;;
59950;SDS011;45812;53.540;9.774;2022-11-11T11:50:07;25.23;;;11.23;;
59950;SDS011;45812;53.540;9.774;2022-11-11T11:52:51;24.08;;;10.05;;
59950;SDS011;45812;53.540;9.774;2022-11-11T11:55:27;21.77;;;10.02;;
59950;SDS011;45812;53.540;9.774;2022-11-11T11:58:10;28.20;;;11.13;;
59950;SDS011;45812;53.540;9.774;2022-11-11T12:01:05;23.60;;;10.45;;
59950;SDS011;45812;53.540;9.774;2022-11-11T12:04:14;22.70;;;10.52;;
59950;SDS011;45812;53.540;9.774;2022-11-11T12:07:02;22.15;;;9.75;;
59950;SDS011;45812;53.540;9.774;2022-11-11T12:09:57;22.52;;;10.52;;
59950;SDS011;45812;53.540;9.774;2022-11-11T12:12:40;25.85;;;9.73;;
59950;SDS011;45812;53.540;9.774;2022-11-11T12:15:33;24.85;;;10.70;;
59950;SDS011;45812;53.540;9.774;2022-11-11T12:18:14;23.17;;;10.23;;
59950;SDS011;45812;53.540;9.774;2022-11-11T12:20:56;20.45;;;9.77;;
59950;SDS011;45812;53.540;9.774;2022-11-11T12:28:52;19.05;;;9.77;;
59950;SDS011;45812;53.540;9.774;2022-11-11T12:31:29;21.02;;;9.95;;
59950;SDS011;45812;53.540;9.774;2022-11-11T12:34:17;22.00;;;9.88;;
59950;SDS011;45812;53.540;9.774;2022-11-11T12:42:47;20.98;;;9.20;;
59950;SDS011;45812;53.540;9.774;2022-11-11T12:54:16;17.50;;;9.60;;
59950;SDS011;45812;53.540;9.774;2022-11-11T12:57:05;18.10;;;9.65;;
59950;SDS011;45812;53.540;9.774;2022-11-11T12:59:59;19.73;;;9.55;;
59950;SDS011;45812;53.540;9.774;2022-11-11T13:02:33;19.58;;;9.82;;
59950;SDS011;45812;53.540;9.774;2022-11-11T13:05:48;20.70;;;10.18;;
59950;SDS011;45812;53.540;9.774;2022-11-11T13:10:51;20.50;;;10.52;;
59950;SDS011;45812;53.540;9.774;2022-11-11T13:13:29;25.73;;;11.55;;
59950;SDS011;45812;53.540;9.774;2022-11-11T13:16:08;22.27;;;10.40;;
59950;SDS011;45812;53.540;9.774;2022-11-11T13:18:41;22.98;;;10.73;;
59950;SDS011;45812;53.540;9.774;2022-11-11T13:21:15;23.60;;;10.93;;
59950;SDS011;45812;53.540;9.774;2022-11-11T13:23:43;22.33;;;11.48;;
59950;SDS011;45812;53.540;9.774;2022-11-11T13:26:19;22.58;;;10.05;;
59950;SDS011;45812;53.540;9.774;2022-11-11T13:28:57;24.10;;;10.73;;
59950;SDS011;45812;53.540;9.774;2022-11-11T13:31:37;22.25;;;10.32;;
59950;SDS011;45812;53.540;9.774;2022-11-11T13:34:08;22.80;;;10.88;;
59950;SDS011;45812;53.540;9.774;2022-11-11T13:36:43;24.00;;;11.25;;
59950;SDS011;45812;53.540;9.774;2022-11-11T13:39:22;19.50;;;9.60;;
59950;SDS011;45812;53.540;9.774;2022-11-11T13:41:49;21.23;;;10.02;;
59950;SDS011;45812;53.540;9.774;2022-11-11T13:44:31;20.67;;;10.18;;
59950;SDS011;45812;53.540;9.774;2022-11-11T13:47:01;20.25;;;10.82;;
59950;SDS011;45812;53.540;9.774;2022-11-11T13:49:33;19.27;;;9.73;;
59950;SDS011;45812;53.540;9.774;2022-11-11T13:52:05;21.58;;;9.65;;
59950;SDS011;45812;53.540;9.774;2022-11-11T13:54:49;21.33;;;9.82;;
59950;SDS011;45812;53.540;9.774;2022-11-11T13:57:22;22.85;;;10.75;;
59950;SDS011;45812;53.540;9.774;2022-11-11T14:02:40;24.50;;;10.13;;
59950;SDS011;45812;53.540;9.774;2022-11-11T14:07:46;20.25;;;9.18;;
59950;SDS011;45812;53.540;9.774;2022-11-11T14:12:41;19.02;;;10.25;;
59950;SDS011;45812;53.540;9.774;2022-11-11T14:17:56;21.00;;;9.98;;
59950;SDS011;45812;53.540;9.774;2022-11-11T14:20:40;20.88;;;9.65;;
59950;SDS011;45812;53.540;9.774;2022-11-11T14:25:51;18.58;;;9.32;;
59950;SDS011;45812;53.540;9.774;2022-11-11T14:33:50;17.50;;;9.95;;
59950;SDS011;45812;53.540;9.774;2022-11-11T14:41:51;19.73;;;9.55;;
59950;SDS011;45812;53.540;9.774;2022-11-11T14:49:45;20.40;;;9.50;;
59950;SDS011;45812;53.540;9.774;2022-11-11T14:52:22;19.15;;;9.65;;
59950;SDS011;45812;53.540;9.774;2022-11-11T14:57:47;17.40;;;9.35;;
59950;SDS011;45812;53.540;9.774;2022-11-11T15:00:13;19.05;;;9.73;;
59950;SDS011;45812;53.540;9.774;2022-11-11T15:02:46;16.40;;;8.90;;
59950;SDS011;45812;53.540;9.774;2022-11-11T15:07:59;21.02;;;10.32;;
59950;SDS011;45812;53.540;9.774;2022-11-11T15:10:39;19.65;;;9.43;;
59950;SDS011;45812;53.540;9.774;2022-11-11T15:13:28;19.85;;;9.43;;
59950;SDS011;45812;53.540;9.774;2022-11-11T15:16:21;20.15;;;10.30;;
59950;SDS011;45812;53.540;9.774;2022-11-11T15:21:35;17.48;;;8.95;;
59950;SDS011;45812;53.540;9.774;2022-11-11T15:27:06;15.98;;;9.00;;
59950;SDS011;45812;53.540;9.774;2022-11-11T15:29:56;17.25;;;8.60;;
59950;SDS011;45812;53.540;9.774;2022-11-11T15:35:30;16.83;;;8.98;;
59950;SDS011;45812;53.540;9.774;2022-11-11T15:38:00;18.25;;;9.10;;
59950;SDS011;45812;53.540;9.774;2022-11-11T15:40:31;20.27;;;8.52;;
59950;SDS011;45812;53.540;9.774;2022-11-11T15:43:14;17.88;;;8.82;;
59950;SDS011;45812;53.540;9.774;2022-11-11T15:45:43;18.23;;;9.65;;
59950;SDS011;45812;53.540;9.774;2022-11-11T15:48:13;18.30;;;8.57;;
59950;SDS011;45812;53.540;9.774;2022-11-11T15:50:41;16.30;;;9.30;;
59950;SDS011;45812;53.540;9.774;2022-11-11T15:53:09;14.73;;;8.50;;
59950;SDS011;45812;53.540;9.774;2022-11-11T15:55:37;15.40;;;8.73;;
59950;SDS011;45812;53.540;9.774;2022-11-11T15:58:10;17.02;;;9.45;;
59950;SDS011;45812;53.540;9.774;2022-11-11T16:00:39;19.52;;;9.52;;
59950;SDS011;45812;53.540;9.774;2022-11-11T16:03:10;17.77;;;8.32;;
59950;SDS011;45812;53.540;9.774;2022-11-11T16:05:40;17.15;;;9.23;;
59950;SDS011;45812;53.540;9.774;2022-11-11T16:08:07;20.35;;;10.43;;
59950;SDS011;45812;53.540;9.774;2022-11-11T16:10:35;20.58;;;9.57;;
59950;SDS011;45812;53.540;9.774;2022-11-11T16:13:17;20.30;;;10.55;;
59950;SDS011;45812;53.540;9.774;2022-11-11T16:15:48;18.20;;;9.13;;
59950;SDS011;45812;53.540;9.774;2022-11-11T16:18:17;17.25;;;8.98;;
59950;SDS011;45812;53.540;9.774;2022-11-11T16:23:22;14.40;;;8.98;;
59950;SDS011;45812;53.540;9.774;2022-11-11T16:25:49;18.83;;;9.70;;
59950;SDS011;45812;53.540;9.774;2022-11-11T16:28:16;17.15;;;8.82;;
59950;SDS011;45812;53.540;9.774;2022-11-11T16:30:41;19.33;;;9.20;;
59950;SDS011;45812;53.540;9.774;2022-11-11T16:33:17;23.08;;;10.18;;
59950;SDS011;45812;53.540;9.774;2022-11-11T16:35:51;20.25;;;9.35;;
59950;SDS011;45812;53.540;9.774;2022-11-11T16:38:29;21.23;;;10.02;;